Terminal Aerodrome Forecast
Issued by NWS Twin Cities, MN

Home | Current Version | Previous Version | Graphics & Text | Print | Product List | Glossary On
Versions: 1 2 3 4 5 6 7 8 9 10 11 12 13 14 15 16 17 18 19 20
159
FTUS43 KMPX 152325
TAFSTC
TAF
KSTC 152325Z 1600/1624 31014G20KT P6SM BKN020
     FM160400 32009KT P6SM OVC015
     FM160900 VRB04KT P6SM OVC035
     FM161300 09004KT P6SM BKN050
     FM161700 13009KT P6SM OVC110
     FM162000 14013G21KT P6SM BKN120=

USA.gov is the U.S. government's official web portal to all federal, state and local government web resources and services.